EZY24YG EGNM-EGAA
Flight info
| Callsign | EZY24YG |
|---|---|
| Flight time | 0h 43m |
| Altitude | 24000 |
| Route | NELSA DCT CROFT Y70 KOLID L70 GUNTU Z196 DIGMA M146 IPSET P6 BELZU |
| Aircraft | A320/M-SDE3FGHIRWY/LB1 |
Departure
| Time | 2026-05-04 21:14 |
|---|---|
| Airport | Leeds Bradford Airport (EGNM) |
Arrival
| Time | 2026-05-04 21:57 |
|---|---|
| Airport | Belfast International Airport (EGAA) |
| Time | Latitude | Longitude | Altitude | Speed | Heading |
|---|---|---|---|---|---|
| 2026-05-04 20:40 | 53.86882 | -1.65690 | 665 ft | 0 kts | 1° |
| 2026-05-04 21:06 | 53.86859 | -1.65690 | 665 ft | 4 kts | 1° |
| 2026-05-04 21:06 | 53.86838 | -1.65691 | 665 ft | 4 kts | 7° |
| 2026-05-04 21:06 | 53.86819 | -1.65704 | 662 ft | 4 kts | 75° |
| 2026-05-04 21:06 | 53.86817 | -1.65745 | 663 ft | 4 kts | 82° |
| 2026-05-04 21:07 | 53.86812 | -1.65789 | 663 ft | 4 kts | 86° |
| 2026-05-04 21:07 | 53.86812 | -1.65825 | 663 ft | 4 kts | 91° |
| 2026-05-04 21:07 | 53.86812 | -1.65850 | 663 ft | 0 kts | 91° |
| 2026-05-04 21:10 | 53.86812 | -1.65843 | 665 ft | 3 kts | 91° |
| 2026-05-04 21:10 | 53.86798 | -1.65779 | 666 ft | 9 kts | 137° |
| 2026-05-04 21:11 | 53.86745 | -1.65689 | 663 ft | 14 kts | 112° |
| 2026-05-04 21:11 | 53.86737 | -1.65537 | 664 ft | 13 kts | 90° |
| 2026-05-04 21:11 | 53.86693 | -1.65426 | 661 ft | 13 kts | 172° |
| 2026-05-04 21:11 | 53.86612 | -1.65428 | 664 ft | 10 kts | 183° |
| 2026-05-04 21:12 | 53.86540 | -1.65436 | 667 ft | 11 kts | 184° |
| 2026-05-04 21:12 | 53.86429 | -1.65443 | 673 ft | 20 kts | 180° |
| 2026-05-04 21:12 | 53.86287 | -1.65454 | 679 ft | 17 kts | 185° |
| 2026-05-04 21:12 | 53.86266 | -1.65547 | 678 ft | 8 kts | 300° |
| 2026-05-04 21:13 | 53.86279 | -1.65574 | 679 ft | 0 kts | 315° |
| 2026-05-04 21:13 | 53.86302 | -1.65613 | 677 ft | 28 kts | 316° |
| 2026-05-04 21:14 | 53.86659 | -1.66162 | 666 ft | 105 kts | 317° |
| 2026-05-04 21:14 | 53.87334 | -1.67200 | 777 ft | 148 kts | 318° |
| 2026-05-04 21:14 | 53.88135 | -1.68293 | 1458 ft | 148 kts | 323° |
| 2026-05-04 21:14 | 53.88905 | -1.69435 | 2005 ft | 154 kts | 311° |
| 2026-05-04 21:15 | 53.89638 | -1.70933 | 2262 ft | 177 kts | 307° |
| 2026-05-04 21:15 | 53.90079 | -1.72987 | 2580 ft | 202 kts | 269° |
| 2026-05-04 21:15 | 53.89825 | -1.75489 | 2924 ft | 229 kts | 260° |
| 2026-05-04 21:15 | 53.89446 | -1.78250 | 3440 ft | 251 kts | 254° |
| 2026-05-04 21:16 | 53.88705 | -1.81036 | 4298 ft | 260 kts | 238° |
| 2026-05-04 21:16 | 53.87610 | -1.83492 | 5298 ft | 262 kts | 232° |
| 2026-05-04 21:16 | 53.86476 | -1.85888 | 6273 ft | 265 kts | 232° |
| 2026-05-04 21:16 | 53.85287 | -1.88330 | 6834 ft | 270 kts | 231° |
| 2026-05-04 21:17 | 53.84282 | -1.90991 | 7012 ft | 269 kts | 250° |
| 2026-05-04 21:17 | 53.83949 | -1.94071 | 7055 ft | 267 kts | 272° |
| 2026-05-04 21:17 | 53.84355 | -1.97115 | 7061 ft | 267 kts | 295° |
| 2026-05-04 21:17 | 53.85272 | -1.99853 | 7063 ft | 268 kts | 300° |
| 2026-05-04 21:18 | 53.86014 | -2.02730 | 7060 ft | 267 kts | 285° |
| 2026-05-04 21:18 | 53.86275 | -2.05835 | 7062 ft | 267 kts | 270° |
| 2026-05-04 21:18 | 53.86279 | -2.08991 | 7062 ft | 267 kts | 270° |
| 2026-05-04 21:18 | 53.86290 | -2.12137 | 7067 ft | 267 kts | 270° |
| 2026-05-04 21:19 | 53.86198 | -2.15270 | 7067 ft | 266 kts | 260° |
| 2026-05-04 21:19 | 53.85649 | -2.18265 | 7066 ft | 267 kts | 245° |
| 2026-05-04 21:19 | 53.84639 | -2.20911 | 7065 ft | 269 kts | 230° |
| 2026-05-04 21:19 | 53.83279 | -2.23101 | 7075 ft | 271 kts | 223° |
| 2026-05-04 21:20 | 53.81856 | -2.25237 | 7819 ft | 274 kts | 223° |
| 2026-05-04 21:20 | 53.80422 | -2.27393 | 8759 ft | 277 kts | 223° |
| 2026-05-04 21:20 | 53.78972 | -2.29570 | 9671 ft | 281 kts | 224° |
| 2026-05-04 21:20 | 53.77516 | -2.31753 | 10495 ft | 285 kts | 224° |
| 2026-05-04 21:21 | 53.76023 | -2.33990 | 11324 ft | 288 kts | 223° |
| 2026-05-04 21:21 | 53.74512 | -2.36251 | 12168 ft | 291 kts | 223° |
| 2026-05-04 21:21 | 53.72984 | -2.38531 | 13004 ft | 294 kts | 223° |
| 2026-05-04 21:21 | 53.71442 | -2.40837 | 13850 ft | 297 kts | 223° |
| 2026-05-04 21:22 | 53.69888 | -2.43163 | 14554 ft | 301 kts | 222° |
| 2026-05-04 21:22 | 53.68311 | -2.45516 | 15267 ft | 304 kts | 222° |
| 2026-05-04 21:22 | 53.66720 | -2.47891 | 15975 ft | 307 kts | 222° |
| 2026-05-04 21:22 | 53.65112 | -2.50289 | 16683 ft | 310 kts | 222° |
| 2026-05-04 21:23 | 53.63571 | -2.52855 | 17378 ft | 313 kts | 230° |
| 2026-05-04 21:23 | 53.62309 | -2.55865 | 18074 ft | 316 kts | 240° |
| 2026-05-04 21:23 | 53.61376 | -2.59238 | 18702 ft | 320 kts | 248° |
| 2026-05-04 21:23 | 53.60530 | -2.62727 | 19270 ft | 324 kts | 247° |
| 2026-05-04 21:24 | 53.59678 | -2.66208 | 19821 ft | 328 kts | 247° |
| 2026-05-04 21:24 | 53.58801 | -2.69782 | 20381 ft | 332 kts | 247° |
| 2026-05-04 21:24 | 53.58035 | -2.73473 | 20928 ft | 337 kts | 256° |
| 2026-05-04 21:24 | 53.57647 | -2.77382 | 21460 ft | 341 kts | 265° |
| 2026-05-04 21:25 | 53.57664 | -2.81398 | 21983 ft | 346 kts | 275° |
| 2026-05-04 21:25 | 53.57877 | -2.85459 | 22512 ft | 350 kts | 275° |
| 2026-05-04 21:25 | 53.58087 | -2.89576 | 23067 ft | 354 kts | 275° |
| 2026-05-04 21:25 | 53.58291 | -2.93738 | 23582 ft | 359 kts | 275° |
| 2026-05-04 21:26 | 53.58496 | -2.97982 | 23827 ft | 371 kts | 275° |
| 2026-05-04 21:26 | 53.58709 | -3.02390 | 23974 ft | 384 kts | 275° |
| 2026-05-04 21:26 | 53.58928 | -3.06942 | 24063 ft | 398 kts | 275° |
| 2026-05-04 21:26 | 53.59153 | -3.11689 | 24080 ft | 414 kts | 275° |
| 2026-05-04 21:27 | 53.59429 | -3.16597 | 24084 ft | 428 kts | 279° |
| 2026-05-04 21:27 | 53.60005 | -3.21562 | 24081 ft | 435 kts | 282° |
| 2026-05-04 21:27 | 53.60625 | -3.26566 | 24081 ft | 438 kts | 282° |
| 2026-05-04 21:27 | 53.61249 | -3.31587 | 24081 ft | 439 kts | 282° |
| 2026-05-04 21:28 | 53.61872 | -3.36620 | 24085 ft | 439 kts | 282° |
| 2026-05-04 21:28 | 53.62493 | -3.41645 | 24086 ft | 438 kts | 282° |
| 2026-05-04 21:28 | 53.63103 | -3.46613 | 24088 ft | 438 kts | 282° |
| 2026-05-04 21:28 | 53.63717 | -3.51651 | 24087 ft | 438 kts | 282° |
| 2026-05-04 21:29 | 53.64341 | -3.56693 | 24091 ft | 438 kts | 284° |
| 2026-05-04 21:29 | 53.65274 | -3.61574 | 24088 ft | 437 kts | 293° |
| 2026-05-04 21:29 | 53.66645 | -3.66137 | 24081 ft | 436 kts | 302° |
| 2026-05-04 21:29 | 53.68358 | -3.70353 | 24087 ft | 435 kts | 306° |
| 2026-05-04 21:30 | 53.70107 | -3.74525 | 24091 ft | 435 kts | 306° |
| 2026-05-04 21:30 | 53.71848 | -3.78690 | 24109 ft | 434 kts | 306° |
| 2026-05-04 21:30 | 53.73582 | -3.82848 | 24113 ft | 433 kts | 306° |
| 2026-05-04 21:30 | 53.75311 | -3.87010 | 24114 ft | 432 kts | 306° |
| 2026-05-04 21:31 | 53.78755 | -3.95318 | 24110 ft | 431 kts | 306° |
| 2026-05-04 21:31 | 53.80476 | -3.99476 | 24111 ft | 431 kts | 306° |
| 2026-05-04 21:31 | 53.82170 | -4.03582 | 24108 ft | 431 kts | 306° |
| 2026-05-04 21:32 | 53.83882 | -4.07739 | 24109 ft | 431 kts | 306° |
| 2026-05-04 21:32 | 53.85593 | -4.11901 | 24107 ft | 430 kts | 305° |
| 2026-05-04 21:32 | 53.87059 | -4.16314 | 24102 ft | 431 kts | 292° |
| 2026-05-04 21:32 | 53.88223 | -4.20996 | 24092 ft | 430 kts | 299° |
| 2026-05-04 21:33 | 53.89851 | -4.25228 | 24099 ft | 429 kts | 308° |
| 2026-05-04 21:33 | 53.91759 | -4.29113 | 24102 ft | 428 kts | 312° |
| 2026-05-04 21:33 | 53.93735 | -4.32894 | 24108 ft | 428 kts | 311° |
| 2026-05-04 21:33 | 53.95659 | -4.36740 | 24117 ft | 427 kts | 309° |
| 2026-05-04 21:34 | 53.97486 | -4.40719 | 24117 ft | 427 kts | 307° |
| 2026-05-04 21:34 | 53.99217 | -4.44815 | 24120 ft | 427 kts | 305° |
| 2026-05-04 21:34 | 54.00881 | -4.48982 | 24062 ft | 425 kts | 304° |
| 2026-05-04 21:34 | 54.02605 | -4.53037 | 23397 ft | 422 kts | 310° |
| 2026-05-04 21:35 | 54.04522 | -4.56781 | 22722 ft | 417 kts | 311° |
| 2026-05-04 21:35 | 54.06446 | -4.60431 | 22126 ft | 411 kts | 312° |
| 2026-05-04 21:35 | 54.08369 | -4.64007 | 21531 ft | 406 kts | 313° |
| 2026-05-04 21:35 | 54.10276 | -4.67519 | 20972 ft | 401 kts | 313° |
| 2026-05-04 21:36 | 54.12159 | -4.70985 | 20418 ft | 396 kts | 312° |
| 2026-05-04 21:36 | 54.14020 | -4.74427 | 19891 ft | 392 kts | 312° |
| 2026-05-04 21:36 | 54.15855 | -4.77838 | 19382 ft | 388 kts | 311° |
| 2026-05-04 21:36 | 54.17665 | -4.81224 | 18880 ft | 384 kts | 311° |
| 2026-05-04 21:37 | 54.19455 | -4.84588 | 18362 ft | 381 kts | 311° |
| 2026-05-04 21:37 | 54.21230 | -4.87931 | 17806 ft | 378 kts | 311° |
| 2026-05-04 21:37 | 54.22990 | -4.91248 | 17290 ft | 374 kts | 311° |
| 2026-05-04 21:37 | 54.24707 | -4.94482 | 16775 ft | 371 kts | 311° |
| 2026-05-04 21:38 | 54.26439 | -4.97743 | 16229 ft | 369 kts | 311° |
| 2026-05-04 21:38 | 54.28158 | -5.00986 | 15704 ft | 367 kts | 311° |
| 2026-05-04 21:38 | 54.29869 | -5.04217 | 15162 ft | 365 kts | 311° |
| 2026-05-04 21:38 | 54.31573 | -5.07431 | 14617 ft | 364 kts | 311° |
| 2026-05-04 21:39 | 54.33268 | -5.10639 | 14059 ft | 363 kts | 311° |
| 2026-05-04 21:39 | 54.34958 | -5.13848 | 13459 ft | 362 kts | 311° |
| 2026-05-04 21:39 | 54.36637 | -5.17037 | 12885 ft | 359 kts | 311° |
| 2026-05-04 21:39 | 54.38307 | -5.20212 | 12280 ft | 357 kts | 311° |
| 2026-05-04 21:40 | 54.39961 | -5.23362 | 11725 ft | 354 kts | 311° |
| 2026-05-04 21:40 | 54.41599 | -5.26493 | 11137 ft | 351 kts | 311° |
| 2026-05-04 21:40 | 54.43219 | -5.29593 | 10770 ft | 342 kts | 311° |
| 2026-05-04 21:40 | 54.44771 | -5.32560 | 10646 ft | 326 kts | 311° |
| 2026-05-04 21:41 | 54.46266 | -5.35378 | 10522 ft | 312 kts | 312° |
| 2026-05-04 21:41 | 54.47731 | -5.38028 | 10395 ft | 300 kts | 313° |
| 2026-05-04 21:41 | 54.49158 | -5.40555 | 10273 ft | 289 kts | 313° |
| 2026-05-04 21:41 | 54.50519 | -5.42954 | 10153 ft | 280 kts | 313° |
| 2026-05-04 21:42 | 54.51706 | -5.45578 | 10099 ft | 277 kts | 300° |
| 2026-05-04 21:42 | 54.52471 | -5.48619 | 9859 ft | 277 kts | 288° |
| 2026-05-04 21:42 | 54.53049 | -5.51765 | 9616 ft | 275 kts | 288° |
| 2026-05-04 21:42 | 54.53628 | -5.54897 | 9387 ft | 274 kts | 288° |
| 2026-05-04 21:43 | 54.54207 | -5.58011 | 9159 ft | 273 kts | 288° |
| 2026-05-04 21:43 | 54.54787 | -5.61114 | 8939 ft | 272 kts | 288° |
| 2026-05-04 21:43 | 54.55365 | -5.64209 | 8712 ft | 271 kts | 288° |
| 2026-05-04 21:43 | 54.55942 | -5.67292 | 8494 ft | 269 kts | 288° |
| 2026-05-04 21:44 | 54.56513 | -5.70363 | 8271 ft | 268 kts | 288° |
| 2026-05-04 21:44 | 54.57081 | -5.73421 | 8050 ft | 267 kts | 288° |
| 2026-05-04 21:44 | 54.57644 | -5.76471 | 7831 ft | 266 kts | 288° |
| 2026-05-04 21:44 | 54.58202 | -5.79507 | 7613 ft | 265 kts | 288° |
| 2026-05-04 21:45 | 54.58760 | -5.82535 | 7392 ft | 264 kts | 288° |
| 2026-05-04 21:45 | 54.59306 | -5.85513 | 7180 ft | 263 kts | 288° |
| 2026-05-04 21:45 | 54.59857 | -5.88515 | 6952 ft | 262 kts | 288° |
| 2026-05-04 21:45 | 54.60404 | -5.91507 | 6743 ft | 261 kts | 288° |
| 2026-05-04 21:46 | 54.60951 | -5.94498 | 6536 ft | 260 kts | 288° |
| 2026-05-04 21:46 | 54.61495 | -5.97467 | 6297 ft | 259 kts | 288° |
| 2026-05-04 21:46 | 54.62036 | -6.00421 | 6084 ft | 258 kts | 288° |
| 2026-05-04 21:46 | 54.62572 | -6.03368 | 5825 ft | 256 kts | 288° |
| 2026-05-04 21:47 | 54.63097 | -6.06268 | 5566 ft | 249 kts | 287° |
| 2026-05-04 21:47 | 54.63604 | -6.09066 | 5365 ft | 240 kts | 287° |
| 2026-05-04 21:47 | 54.63927 | -6.10849 | 5306 ft | 231 kts | 287° |
| 2026-05-04 21:47 | 54.64395 | -6.13424 | 5213 ft | 219 kts | 287° |
| 2026-05-04 21:48 | 54.64840 | -6.15877 | 5116 ft | 210 kts | 287° |
| 2026-05-04 21:48 | 54.65107 | -6.18282 | 5012 ft | 201 kts | 268° |
| 2026-05-04 21:48 | 54.64742 | -6.20543 | 4924 ft | 195 kts | 242° |
| 2026-05-04 21:48 | 54.63836 | -6.22251 | 4792 ft | 195 kts | 216° |
| 2026-05-04 21:49 | 54.62566 | -6.23056 | 4633 ft | 199 kts | 188° |
| 2026-05-04 21:49 | 54.61172 | -6.23102 | 4425 ft | 201 kts | 184° |
| 2026-05-04 21:49 | 54.59783 | -6.23122 | 4339 ft | 200 kts | 184° |
| 2026-05-04 21:49 | 54.58382 | -6.23149 | 4285 ft | 201 kts | 183° |
| 2026-05-04 21:50 | 54.56996 | -6.23177 | 4238 ft | 202 kts | 183° |
| 2026-05-04 21:50 | 54.55591 | -6.23210 | 4191 ft | 202 kts | 183° |
| 2026-05-04 21:50 | 54.54189 | -6.23240 | 4144 ft | 201 kts | 183° |
| 2026-05-04 21:50 | 54.52786 | -6.23269 | 4087 ft | 202 kts | 183° |
| 2026-05-04 21:51 | 54.51379 | -6.23298 | 3883 ft | 203 kts | 183° |
| 2026-05-04 21:51 | 54.49964 | -6.23327 | 3638 ft | 204 kts | 183° |
| 2026-05-04 21:51 | 54.48567 | -6.23090 | 3494 ft | 199 kts | 161° |
| 2026-05-04 21:51 | 54.47457 | -6.21807 | 3362 ft | 189 kts | 130° |
| 2026-05-04 21:52 | 54.46878 | -6.19873 | 3244 ft | 178 kts | 100° |
| 2026-05-04 21:52 | 54.46877 | -6.17838 | 3141 ft | 166 kts | 72° |
| 2026-05-04 21:52 | 54.47349 | -6.16127 | 3034 ft | 154 kts | 47° |
| 2026-05-04 21:52 | 54.48132 | -6.14961 | 2959 ft | 147 kts | 24° |
| 2026-05-04 21:53 | 54.49076 | -6.14418 | 2879 ft | 142 kts | 3° |
| 2026-05-04 21:53 | 54.50045 | -6.14517 | 2800 ft | 139 kts | 343° |
| 2026-05-04 21:53 | 54.50966 | -6.15011 | 2718 ft | 138 kts | 341° |
| 2026-05-04 21:53 | 54.51886 | -6.15502 | 2637 ft | 138 kts | 341° |
| 2026-05-04 21:54 | 54.52807 | -6.15992 | 2556 ft | 138 kts | 341° |
| 2026-05-04 21:54 | 54.53728 | -6.16480 | 2460 ft | 139 kts | 341° |
| 2026-05-04 21:54 | 54.54659 | -6.16969 | 2248 ft | 140 kts | 342° |
| 2026-05-04 21:54 | 54.55585 | -6.17455 | 2057 ft | 138 kts | 342° |
| 2026-05-04 21:55 | 54.56502 | -6.17936 | 1883 ft | 136 kts | 341° |
| 2026-05-04 21:55 | 54.57400 | -6.18407 | 1692 ft | 136 kts | 341° |
| 2026-05-04 21:55 | 54.58310 | -6.18883 | 1504 ft | 137 kts | 342° |
| 2026-05-04 21:55 | 54.59220 | -6.19358 | 1322 ft | 137 kts | 342° |
| 2026-05-04 21:56 | 54.60133 | -6.19836 | 1120 ft | 137 kts | 341° |
| 2026-05-04 21:56 | 54.61044 | -6.20316 | 941 ft | 137 kts | 341° |
| 2026-05-04 21:56 | 54.61956 | -6.20795 | 757 ft | 137 kts | 341° |
| 2026-05-04 21:56 | 54.62872 | -6.21272 | 596 ft | 137 kts | 342° |
| 2026-05-04 21:57 | 54.63793 | -6.21748 | 401 ft | 139 kts | 341° |
| 2026-05-04 21:57 | 54.64703 | -6.22230 | 275 ft | 131 kts | 337° |
| 2026-05-04 21:57 | 54.65441 | -6.22666 | 272 ft | 83 kts | 342° |
| 2026-05-04 21:57 | 54.65682 | -6.22798 | 272 ft | 22 kts | 356° |
| 2026-05-04 21:58 | 54.65749 | -6.22618 | 272 ft | 21 kts | 84° |
| 2026-05-04 21:58 | 54.65764 | -6.22352 | 272 ft | 22 kts | 84° |
| 2026-05-04 21:58 | 54.65795 | -6.22086 | 272 ft | 23 kts | 69° |
| 2026-05-04 21:58 | 54.65857 | -6.21858 | 274 ft | 18 kts | 64° |
| 2026-05-04 21:59 | 54.65900 | -6.21707 | 272 ft | 9 kts | 64° |
| 2026-05-04 21:59 | 54.65922 | -6.21625 | 272 ft | 7 kts | 64° |
| 2026-05-04 21:59 | 54.65942 | -6.21554 | 275 ft | 6 kts | 64° |
| 2026-05-04 21:59 | 54.65959 | -6.21491 | 275 ft | 5 kts | 66° |
| 2026-05-04 22:00 | 54.65973 | -6.21436 | 275 ft | 5 kts | 66° |
| 2026-05-04 22:00 | 54.65985 | -6.21389 | 275 ft | 4 kts | 66° |
| 2026-05-04 22:00 | 54.65996 | -6.21348 | 272 ft | 3 kts | 66° |
| 2026-05-04 22:00 | 54.66005 | -6.21314 | 272 ft | 3 kts | 66° |
| 2026-05-04 22:01 | 54.66020 | -6.21256 | 273 ft | 8 kts | 64° |
| 2026-05-04 22:01 | 54.66073 | -6.21220 | 272 ft | 10 kts | 345° |
| 2026-05-04 22:01 | 54.66136 | -6.21268 | 272 ft | 7 kts | 335° |
| 2026-05-04 22:01 | 54.66158 | -6.21331 | 272 ft | 6 kts | 264° |
| 2026-05-04 22:02 | 54.66151 | -6.21363 | 274 ft | 2 kts | 243° |
| 2026-05-04 22:02 | 54.66148 | -6.21371 | 273 ft | 0 kts | 244° |
| 2026-05-04 22:02 | 54.66147 | -6.21377 | 275 ft | 1 kts | 244° |
| 2026-05-04 22:03 | 54.66145 | -6.21382 | 274 ft | 1 kts | 244° |
| 2026-05-04 22:03 | 54.66144 | -6.21385 | 274 ft | 0 kts | 244° |